VIAG/AGR METAR and TAF weather

Enter ICAO airport designator
Station Type Date Time Source
VIAG METAR 2018/12/07 21:30 UTC NOAA

VIAG 072130Z 00000KT 1500 BR SKC 09/09 Q1015 BECMG 1000


Station Type Date Time Source
VIAG Decoded METAR 2018/12/07 21:30 UTC NOAA

Agra, India (VIAG) 27-09N 077-58E 169M
Dec 07, 2018 - 04:30 PM EST / 2018.12.07 2130 UTC
Wind: Calm:0
Visibility: less than 1 mile:0
Sky conditions: clear
Weather: mist
Temperature: 48 F (9 C)
Dew Point: 48 F (9 C)
Relative Humidity: 100%
Pressure (altimeter): 29.97 in. Hg (1015 hPa)
ob: VIAG 072130Z 00000KT 1500 BR SKC 09/09 Q1015 BECMG 1000
cycle: 21

Station Type Date Time Source
VIAG TAF 2016/07/10 06:00 UTC NOAA

TAF VIAG 100500Z 1006/1015 12005KT 4000 HZ FEW030 SCT100
BECMG 1008/1010 09008KT 5000 HZ
TEMPO 1009/1014 1500 -TSRA SCT025 FEW035CB OVC080


Example: see airport list